sensor_id;sensor_type;location;lat;lon;timestamp;pressure;altitude;pressure_sealevel;temperature;humidity
50057;BME280;36875;49.468;11.200;2023-06-10T00:00:36;97703.56;;;21.65;48.17
50057;BME280;36875;49.468;11.200;2023-06-10T00:03:03;97699.22;;;21.64;48.16
50057;BME280;36875;49.468;11.200;2023-06-10T00:05:30;97698.41;;;21.63;47.95
50057;BME280;36875;49.468;11.200;2023-06-10T00:07:56;97696.81;;;21.62;48.02
50057;BME280;36875;49.468;11.200;2023-06-10T00:10:22;97693.59;;;21.60;47.89
50057;BME280;36875;49.468;11.200;2023-06-10T00:12:49;97689.72;;;21.61;47.88
50057;BME280;36875;49.468;11.200;2023-06-10T00:15:15;97690.06;;;21.60;47.89
50057;BME280;36875;49.468;11.200;2023-06-10T00:17:40;97688.91;;;21.61;48.13
50057;BME280;36875;49.468;11.200;2023-06-10T00:20:08;97686.97;;;21.61;48.00
50057;BME280;36875;49.468;11.200;2023-06-10T00:22:36;97689.72;;;21.61;47.76
50057;BME280;36875;49.468;11.200;2023-06-10T00:25:03;97690.06;;;21.60;47.95
50057;BME280;36875;49.468;11.200;2023-06-10T00:27:29;97689.25;;;21.59;47.91
50057;BME280;36875;49.468;11.200;2023-06-10T00:30:00;97689.25;;;21.59;48.12
50057;BME280;36875;49.468;11.200;2023-06-10T00:32:26;97685.72;;;21.59;48.00
50057;BME280;36875;49.468;11.200;2023-06-10T00:34:51;97693.91;;;21.59;47.79
50057;BME280;36875;49.468;11.200;2023-06-10T00:37:18;97695.88;;;21.58;47.84
50057;BME280;36875;49.468;11.200;2023-06-10T00:39:44;97690.38;;;21.58;47.91
50057;BME280;36875;49.468;11.200;2023-06-10T00:42:09;97689.09;;;21.55;47.85
50057;BME280;36875;49.468;11.200;2023-06-10T00:44:35;97695.03;;;21.58;47.78
50057;BME280;36875;49.468;11.200;2023-06-10T00:47:01;97690.72;;;21.56;48.03
50057;BME280;36875;49.468;11.200;2023-06-10T00:49:27;97686.34;;;21.55;47.68
50057;BME280;36875;49.468;11.200;2023-06-10T00:51:53;97687.19;;;21.56;47.67
50057;BME280;36875;49.468;11.200;2023-06-10T00:54:19;97685.56;;;21.55;47.69
50057;BME280;36875;49.468;11.200;2023-06-10T00:56:46;97688.28;;;21.55;47.80
50057;BME280;36875;49.468;11.200;2023-06-10T00:59:12;97685.56;;;21.55;47.72
50057;BME280;36875;49.468;11.200;2023-06-10T01:01:41;97689.41;;;21.54;47.70
50057;BME280;36875;49.468;11.200;2023-06-10T01:04:08;97683.47;;;21.52;47.69
50057;BME280;36875;49.468;11.200;2023-06-10T01:06:43;97676.88;;;21.53;47.85
50057;BME280;36875;49.468;11.200;2023-06-10T01:09:21;97683.13;;;21.53;47.82
50057;BME280;36875;49.468;11.200;2023-06-10T01:11:57;97681.56;;;21.52;48.12
50057;BME280;36875;49.468;11.200;2023-06-10T01:14:24;97672.72;;;21.47;47.73
50057;BME280;36875;49.468;11.200;2023-06-10T01:16:51;97681.56;;;21.52;48.16
50057;BME280;36875;49.468;11.200;2023-06-10T01:19:18;97680.72;;;21.52;47.95
50057;BME280;36875;49.468;11.200;2023-06-10T01:21:48;97683.47;;;21.52;47.64
50057;BME280;36875;49.468;11.200;2023-06-10T01:24:14;97681.88;;;21.51;47.85
50057;BME280;36875;49.468;11.200;2023-06-10T01:26:41;97684.59;;;21.51;48.03
50057;BME280;36875;49.468;11.200;2023-06-10T01:29:14;97690.09;;;21.51;47.71
50057;BME280;36875;49.468;11.200;2023-06-10T01:31:48;97691.19;;;21.50;47.78
50057;BME280;36875;49.468;11.200;2023-06-10T01:34:17;97688.47;;;21.50;48.03
50057;BME280;36875;49.468;11.200;2023-06-10T01:36:44;97683.00;;;21.50;47.73
50057;BME280;36875;49.468;11.200;2023-06-10T01:39:14;97692.34;;;21.49;47.87
50057;BME280;36875;49.468;11.200;2023-06-10T01:41:41;97689.63;;;21.49;47.70
50057;BME280;36875;49.468;11.200;2023-06-10T01:44:07;97697.00;;;21.48;47.84
50057;BME280;36875;49.468;11.200;2023-06-10T01:46:32;97688.78;;;21.48;47.63
50057;BME280;36875;49.468;11.200;2023-06-10T01:48:57;97695.41;;;21.47;47.62
50057;BME280;36875;49.468;11.200;2023-06-10T01:51:23;97691.88;;;21.47;47.86
50057;BME280;36875;49.468;11.200;2023-06-10T01:53:48;97691.03;;;21.46;47.83
50057;BME280;36875;49.468;11.200;2023-06-10T01:56:15;97693.78;;;21.46;47.75
50057;BME280;36875;49.468;11.200;2023-06-10T01:58:44;97694.63;;;21.47;47.66
50057;BME280;36875;49.468;11.200;2023-06-10T02:01:09;97699.25;;;21.46;47.84
50057;BME280;36875;49.468;11.200;2023-06-10T02:03:35;97693.00;;;21.46;47.66
50057;BME280;36875;49.468;11.200;2023-06-10T02:06:01;97697.66;;;21.45;47.80
50057;BME280;36875;49.468;11.200;2023-06-10T02:08:26;97687.81;;;21.44;47.60
50057;BME280;36875;49.468;11.200;2023-06-10T02:10:53;97684.13;;;21.40;47.75
50057;BME280;36875;49.468;11.200;2023-06-10T02:13:20;97680.41;;;21.45;47.79
50057;BME280;36875;49.468;11.200;2023-06-10T02:15:45;97688.63;;;21.45;47.84
50057;BME280;36875;49.468;11.200;2023-06-10T02:18:11;97687.81;;;21.44;47.69
50057;BME280;36875;49.468;11.200;2023-06-10T02:20:37;97681.84;;;21.42;47.63
50057;BME280;36875;49.468;11.200;2023-06-10T02:23:02;97689.75;;;21.44;47.60
50057;BME280;36875;49.468;11.200;2023-06-10T02:25:28;97687.34;;;21.42;47.68
50057;BME280;36875;49.468;11.200;2023-06-10T02:27:54;97684.59;;;21.42;47.75
50057;BME280;36875;49.468;11.200;2023-06-10T02:30:21;97685.72;;;21.41;47.74
50057;BME280;36875;49.468;11.200;2023-06-10T02:32:46;97683.78;;;21.42;47.58
50057;BME280;36875;49.468;11.200;2023-06-10T02:35:16;97677.84;;;21.40;47.56
50057;BME280;36875;49.468;11.200;2023-06-10T02:37:42;97683.31;;;21.40;47.79
50057;BME280;36875;49.468;11.200;2023-06-10T02:40:08;97683.66;;;21.38;47.67
50057;BME280;36875;49.468;11.200;2023-06-10T02:42:34;97684.13;;;21.40;47.59
50057;BME280;36875;49.468;11.200;2023-06-10T02:45:00;97688.78;;;21.40;47.58
50057;BME280;36875;49.468;11.200;2023-06-10T02:47:27;97688.78;;;21.40;47.48
50057;BME280;36875;49.468;11.200;2023-06-10T02:49:53;97687.97;;;21.39;47.66
50057;BME280;36875;49.468;11.200;2023-06-10T02:52:18;97687.19;;;21.38;47.45
50057;BME280;36875;49.468;11.200;2023-06-10T02:54:43;97693.78;;;21.37;47.69
50057;BME280;36875;49.468;11.200;2023-06-10T02:57:10;97698.13;;;21.38;47.67
50057;BME280;36875;49.468;11.200;2023-06-10T02:59:36;97697.34;;;21.38;47.76
50057;BME280;36875;49.468;11.200;2023-06-10T03:02:02;97698.13;;;21.38;47.48
50057;BME280;36875;49.468;11.200;2023-06-10T03:04:28;97701.97;;;21.37;47.67
50057;BME280;36875;49.468;11.200;2023-06-10T03:06:54;97700.38;;;21.36;47.55
50057;BME280;36875;49.468;11.200;2023-06-10T03:09:19;97692.19;;;21.36;47.59
50057;BME280;36875;49.468;11.200;2023-06-10T03:11:45;97699.59;;;21.36;47.60
50057;BME280;36875;49.468;11.200;2023-06-10T03:14:10;97694.91;;;21.36;47.50
50057;BME280;36875;49.468;11.200;2023-06-10T03:16:36;97696.03;;;21.35;47.82
50057;BME280;36875;49.468;11.200;2023-06-10T03:19:05;97704.25;;;21.35;47.70
50057;BME280;36875;49.468;11.200;2023-06-10T03:21:32;97697.97;;;21.35;47.54
50057;BME280;36875;49.468;11.200;2023-06-10T03:23:58;97703.44;;;21.35;47.54
50057;BME280;36875;49.468;11.200;2023-06-10T03:26:23;97697.50;;;21.33;47.68
50057;BME280;36875;49.468;11.200;2023-06-10T03:28:49;97708.91;;;21.35;47.54
50057;BME280;36875;49.468;11.200;2023-06-10T03:31:14;97703.44;;;21.35;47.59
50057;BME280;36875;49.468;11.200;2023-06-10T03:33:42;97706.50;;;21.33;47.36
50057;BME280;36875;49.468;11.200;2023-06-10T03:36:07;97701.03;;;21.33;47.68
50057;BME280;36875;49.468;11.200;2023-06-10T03:38:34;97711.97;;;21.33;47.71
50057;BME280;36875;49.468;11.200;2023-06-10T03:41:00;97716.97;;;21.31;47.43
50057;BME280;36875;49.468;11.200;2023-06-10T03:43:26;97713.13;;;21.32;47.70
50057;BME280;36875;49.468;11.200;2023-06-10T03:45:52;97716.66;;;21.33;47.50
50057;BME280;36875;49.468;11.200;2023-06-10T03:48:18;97710.38;;;21.32;47.42
50057;BME280;36875;49.468;11.200;2023-06-10T03:50:43;97704.91;;;21.32;47.51
50057;BME280;36875;49.468;11.200;2023-06-10T03:53:09;97711.50;;;21.31;47.39
50057;BME280;36875;49.468;11.200;2023-06-10T03:55:36;97709.56;;;21.32;47.56
50057;BME280;36875;49.468;11.200;2023-06-10T03:58:01;97703.28;;;21.31;47.40
50057;BME280;36875;49.468;11.200;2023-06-10T04:00:27;97704.09;;;21.32;47.42
50057;BME280;36875;49.468;11.200;2023-06-10T04:02:54;97708.75;;;21.31;47.49
50057;BME280;36875;49.468;11.200;2023-06-10T04:05:23;97706.03;;;21.31;47.53
50057;BME280;36875;49.468;11.200;2023-06-10T04:07:49;97699.44;;;21.32;47.76
50057;BME280;36875;49.468;11.200;2023-06-10T04:10:15;97695.22;;;21.35;47.35
50057;BME280;36875;49.468;11.200;2023-06-10T04:12:42;97705.88;;;21.36;47.31
50057;BME280;36875;49.468;11.200;2023-06-10T04:15:08;97701.19;;;21.37;47.24
50057;BME280;36875;49.468;11.200;2023-06-10T04:17:34;97710.69;;;21.40;47.10
50057;BME280;36875;49.468;11.200;2023-06-10T04:19:59;97710.34;;;21.41;47.05
50057;BME280;36875;49.468;11.200;2023-06-10T04:22:26;97711.16;;;21.42;47.31
50057;BME280;36875;49.468;11.200;2023-06-10T04:24:51;97706.81;;;21.41;47.16
50057;BME280;36875;49.468;11.200;2023-06-10T04:27:17;97705.69;;;21.42;47.24
50057;BME280;36875;49.468;11.200;2023-06-10T04:29:44;97697.19;;;21.34;47.26
50057;BME280;36875;49.468;11.200;2023-06-10T04:32:09;97701.19;;;21.37;47.15
50057;BME280;36875;49.468;11.200;2023-06-10T04:34:35;97705.22;;;21.40;47.22
50057;BME280;36875;49.468;11.200;2023-06-10T04:37:01;97707.13;;;21.39;47.28
50057;BME280;36875;49.468;11.200;2023-06-10T04:39:26;97706.03;;;21.40;47.28
50057;BME280;36875;49.468;11.200;2023-06-10T04:41:52;97701.97;;;21.37;47.23
50057;BME280;36875;49.468;11.200;2023-06-10T04:44:18;97713.75;;;21.38;47.05
50057;BME280;36875;49.468;11.200;2023-06-10T04:46:45;97714.56;;;21.38;47.06
50057;BME280;36875;49.468;11.200;2023-06-10T04:49:10;97706.34;;;21.38;47.21
50057;BME280;36875;49.468;11.200;2023-06-10T04:51:36;97711.50;;;21.40;47.17
50057;BME280;36875;49.468;11.200;2023-06-10T04:54:03;97706.81;;;21.41;47.09
50057;BME280;36875;49.468;11.200;2023-06-10T04:56:28;97708.91;;;21.44;47.33
50057;BME280;36875;49.468;11.200;2023-06-10T04:58:55;97711.50;;;21.49;47.05
50057;BME280;36875;49.468;11.200;2023-06-10T05:01:20;97706.50;;;21.51;46.98
50057;BME280;36875;49.468;11.200;2023-06-10T05:03:47;97715.69;;;21.55;47.11
50057;BME280;36875;49.468;11.200;2023-06-10T05:06:13;97716.94;;;21.58;46.82
50057;BME280;36875;49.468;11.200;2023-06-10T05:08:38;97717.09;;;21.61;47.15
50057;BME280;36875;49.468;11.200;2023-06-10T05:11:04;97717.25;;;21.65;46.65
50057;BME280;36875;49.468;11.200;2023-06-10T05:13:29;97709.84;;;21.65;46.84
50057;BME280;36875;49.468;11.200;2023-06-10T05:15:55;97713.72;;;21.64;46.80
50057;BME280;36875;49.468;11.200;2023-06-10T05:18:20;97712.59;;;21.65;46.79
50057;BME280;36875;49.468;11.200;2023-06-10T05:20:48;97713.41;;;21.66;46.79
50057;BME280;36875;49.468;11.200;2023-06-10T05:23:14;97712.75;;;21.69;46.93
50057;BME280;36875;49.468;11.200;2023-06-10T05:25:40;97713.22;;;21.71;46.68
50057;BME280;36875;49.468;11.200;2023-06-10T05:28:06;97717.84;;;21.79;46.90
50057;BME280;36875;49.468;11.200;2023-06-10T05:30:35;97720.75;;;21.83;46.77
50057;BME280;36875;49.468;11.200;2023-06-10T05:33:00;97714.94;;;21.84;46.86
50057;BME280;36875;49.468;11.200;2023-06-10T05:35:26;97717.81;;;21.88;46.71
50057;BME280;36875;49.468;11.200;2023-06-10T05:37:52;97724.56;;;21.90;46.71
50057;BME280;36875;49.468;11.200;2023-06-10T05:40:18;97723.13;;;21.93;46.74
50057;BME280;36875;49.468;11.200;2023-06-10T05:42:44;97733.41;;;21.96;46.55
50057;BME280;36875;49.468;11.200;2023-06-10T05:45:10;97737.47;;;21.99;46.71
50057;BME280;36875;49.468;11.200;2023-06-10T05:47:35;97737.59;;;22.02;46.64
50057;BME280;36875;49.468;11.200;2023-06-10T05:50:01;97728.22;;;22.03;46.51
50057;BME280;36875;49.468;11.200;2023-06-10T05:52:27;97734.66;;;22.07;46.42
50057;BME280;36875;49.468;11.200;2023-06-10T05:54:54;97730.00;;;22.08;46.46
50057;BME280;36875;49.468;11.200;2023-06-10T05:57:19;97730.16;;;22.11;46.35
50057;BME280;36875;49.468;11.200;2023-06-10T05:59:45;97729.31;;;22.11;46.48
50057;BME280;36875;49.468;11.200;2023-06-10T06:02:10;97730.63;;;22.13;46.40
50057;BME280;36875;49.468;11.200;2023-06-10T06:04:36;97731.09;;;22.16;46.35
50057;BME280;36875;49.468;11.200;2023-06-10T06:07:02;97735.44;;;22.17;46.21
50057;BME280;36875;49.468;11.200;2023-06-10T06:09:27;97733.97;;;22.19;46.42
50057;BME280;36875;49.468;11.200;2023-06-10T06:11:54;97729.75;;;22.22;46.01
50057;BME280;36875;49.468;11.200;2023-06-10T06:14:20;97727.34;;;22.20;46.19
50057;BME280;36875;49.468;11.200;2023-06-10T06:16:45;97730.22;;;22.24;46.29
50057;BME280;36875;49.468;11.200;2023-06-10T06:19:11;97718.16;;;22.25;46.23
50057;BME280;36875;49.468;11.200;2023-06-10T06:21:36;97725.28;;;22.26;46.09
50057;BME280;36875;49.468;11.200;2023-06-10T06:24:02;97723.63;;;22.25;46.04
50057;BME280;36875;49.468;11.200;2023-06-10T06:26:27;97730.88;;;22.29;46.19
50057;BME280;36875;49.468;11.200;2023-06-10T06:28:54;97728.47;;;22.28;46.35
50057;BME280;36875;49.468;11.200;2023-06-10T06:31:20;97729.28;;;22.28;46.33
50057;BME280;36875;49.468;11.200;2023-06-10T06:33:45;97725.06;;;22.31;46.14
50057;BME280;36875;49.468;11.200;2023-06-10T06:36:11;97723.94;;;22.32;46.02
50057;BME280;36875;49.468;11.200;2023-06-10T06:38:36;97728.78;;;22.35;46.06
50057;BME280;36875;49.468;11.200;2023-06-10T06:41:03;97727.63;;;22.36;46.03
50057;BME280;36875;49.468;11.200;2023-06-10T06:43:31;97724.09;;;22.36;46.07
50057;BME280;36875;49.468;11.200;2023-06-10T06:45:58;97718.75;;;22.39;46.10
50057;BME280;36875;49.468;11.200;2023-06-10T06:48:24;97734.03;;;22.40;46.09
50057;BME280;36875;49.468;11.200;2023-06-10T06:50:49;97725.16;;;22.43;46.15
50057;BME280;36875;49.468;11.200;2023-06-10T06:53:15;97731.44;;;22.44;46.11
50057;BME280;36875;49.468;11.200;2023-06-10T06:55:40;97735.00;;;22.44;46.14
50057;BME280;36875;49.468;11.200;2023-06-10T06:58:06;97734.31;;;22.47;46.10
50057;BME280;36875;49.468;11.200;2023-06-10T07:00:32;97732.06;;;22.49;46.25
50057;BME280;36875;49.468;11.200;2023-06-10T07:02:59;97733.66;;;22.50;46.37
50057;BME280;36875;49.468;11.200;2023-06-10T07:05:24;97739.81;;;22.47;46.27
50057;BME280;36875;49.468;11.200;2023-06-10T07:07:53;97739.34;;;22.45;46.37
50057;BME280;36875;49.468;11.200;2023-06-10T07:10:20;97740.50;;;22.44;46.50
50057;BME280;36875;49.468;11.200;2023-06-10T07:12:47;97737.75;;;22.44;46.50
50057;BME280;36875;49.468;11.200;2023-06-10T07:15:12;97735.47;;;22.46;46.63
50057;BME280;36875;49.468;11.200;2023-06-10T07:17:38;97733.06;;;22.45;46.71
50057;BME280;36875;49.468;11.200;2023-06-10T07:20:06;97725.63;;;22.45;46.72
50057;BME280;36875;49.468;11.200;2023-06-10T07:22:31;97736.28;;;22.47;46.76
50057;BME280;36875;49.468;11.200;2023-06-10T07:24:57;97732.41;;;22.48;46.82
50057;BME280;36875;49.468;11.200;2023-06-10T07:27:22;97723.03;;;22.49;46.84
50057;BME280;36875;49.468;11.200;2023-06-10T07:29:48;97730.47;;;22.48;46.82
50057;BME280;36875;49.468;11.200;2023-06-10T07:32:14;97728.19;;;22.50;46.83
50057;BME280;36875;49.468;11.200;2023-06-10T07:34:39;97727.03;;;22.51;46.88
50057;BME280;36875;49.468;11.200;2023-06-10T07:37:06;97730.28;;;22.54;46.68
50057;BME280;36875;49.468;11.200;2023-06-10T07:39:32;97724.78;;;22.54;46.84
50057;BME280;36875;49.468;11.200;2023-06-10T07:41:57;97715.75;;;22.53;47.00
50057;BME280;36875;49.468;11.200;2023-06-10T07:44:23;97726.38;;;22.55;46.98
50057;BME280;36875;49.468;11.200;2023-06-10T07:46:49;97718.63;;;22.57;46.89
50057;BME280;36875;49.468;11.200;2023-06-10T07:49:14;97727.31;;;22.59;46.72
50057;BME280;36875;49.468;11.200;2023-06-10T07:51:40;97724.56;;;22.59;46.45
50057;BME280;36875;49.468;11.200;2023-06-10T07:54:07;97720.72;;;22.60;46.76
50057;BME280;36875;49.468;11.200;2023-06-10T07:56:33;97723.44;;;22.60;46.77
50057;BME280;36875;49.468;11.200;2023-06-10T07:58:58;97714.91;;;22.61;46.84
50057;BME280;36875;49.468;11.200;2023-06-10T08:01:24;97721.63;;;22.64;46.70
50057;BME280;36875;49.468;11.200;2023-06-10T08:03:49;97726.00;;;22.65;46.64
50057;BME280;36875;49.468;11.200;2023-06-10T08:06:15;97724.06;;;22.65;46.71
50057;BME280;36875;49.468;11.200;2023-06-10T08:08:42;97715.81;;;22.65;46.57
50057;BME280;36875;49.468;11.200;2023-06-10T08:11:10;97720.19;;;22.66;46.50
50057;BME280;36875;49.468;11.200;2023-06-10T08:13:36;97721.44;;;22.69;46.67
50057;BME280;36875;49.468;11.200;2023-06-10T08:16:02;97723.06;;;22.70;46.46
50057;BME280;36875;49.468;11.200;2023-06-10T08:18:28;97720.31;;;22.70;46.53
50057;BME280;36875;49.468;11.200;2023-06-10T08:20:53;97719.16;;;22.71;46.39
50057;BME280;36875;49.468;11.200;2023-06-10T08:23:19;97723.22;;;22.74;46.43
50057;BME280;36875;49.468;11.200;2023-06-10T08:25:45;97725.13;;;22.73;46.45
50057;BME280;36875;49.468;11.200;2023-06-10T08:28:12;97721.72;;;22.76;46.38
50057;BME280;36875;49.468;11.200;2023-06-10T08:30:37;97714.63;;;22.75;46.49
50057;BME280;36875;49.468;11.200;2023-06-10T08:33:03;97720.56;;;22.77;46.86
50057;BME280;36875;49.468;11.200;2023-06-10T08:35:28;97722.19;;;22.78;46.63
50057;BME280;36875;49.468;11.200;2023-06-10T08:37:54;97718.31;;;22.79;46.72
50057;BME280;36875;49.468;11.200;2023-06-10T08:40:19;97716.69;;;22.78;46.71
50057;BME280;36875;49.468;11.200;2023-06-10T08:42:49;97725.41;;;22.80;46.75
50057;BME280;36875;49.468;11.200;2023-06-10T08:45:20;97719.91;;;22.80;46.66
50057;BME280;36875;49.468;11.200;2023-06-10T08:47:50;97722.66;;;22.80;46.66
50057;BME280;36875;49.468;11.200;2023-06-10T08:50:18;97722.66;;;22.80;46.88
50057;BME280;36875;49.468;11.200;2023-06-10T08:52:44;97727.03;;;22.81;46.77
50057;BME280;36875;49.468;11.200;2023-06-10T08:55:15;97723.31;;;22.77;47.14
50057;BME280;36875;49.468;11.200;2023-06-10T08:57:45;97721.06;;;22.79;46.83
50057;BME280;36875;49.468;11.200;2023-06-10T09:00:15;97710.88;;;22.80;46.53
50057;BME280;36875;49.468;11.200;2023-06-10T09:02:43;97716.03;;;22.81;46.77
50057;BME280;36875;49.468;11.200;2023-06-10T09:05:09;97722.78;;;22.84;46.99
50057;BME280;36875;49.468;11.200;2023-06-10T09:07:35;97727.22;;;22.76;46.79
50057;BME280;36875;49.468;11.200;2023-06-10T09:10:02;97726.06;;;22.77;47.13
50057;BME280;36875;49.468;11.200;2023-06-10T09:12:29;97725.59;;;22.75;46.85
50057;BME280;36875;49.468;11.200;2023-06-10T09:14:54;97724.97;;;22.69;46.90
50057;BME280;36875;49.468;11.200;2023-06-10T09:17:20;97714.28;;;22.77;46.76
50057;BME280;36875;49.468;11.200;2023-06-10T09:19:47;97716.38;;;22.80;46.90
50057;BME280;36875;49.468;11.200;2023-06-10T09:22:13;97713.31;;;22.81;46.91
50057;BME280;36875;49.468;11.200;2023-06-10T09:24:39;97718.09;;;22.84;46.56
50057;BME280;36875;49.468;11.200;2023-06-10T09:27:06;97717.63;;;22.82;46.63
50057;BME280;36875;49.468;11.200;2023-06-10T09:29:32;97719.25;;;22.83;46.96
50057;BME280;36875;49.468;11.200;2023-06-10T09:32:10;97723.13;;;22.82;46.84
50057;BME280;36875;49.468;11.200;2023-06-10T09:34:36;97717.81;;;22.77;46.89
50057;BME280;36875;49.468;11.200;2023-06-10T09:37:03;97710.09;;;22.79;46.96
50057;BME280;36875;49.468;11.200;2023-06-10T09:39:29;97718.09;;;22.84;46.93
50057;BME280;36875;49.468;11.200;2023-06-10T09:41:55;97707.47;;;22.83;46.81
50057;BME280;36875;49.468;11.200;2023-06-10T09:44:21;97720.38;;;22.82;46.75
50057;BME280;36875;49.468;11.200;2023-06-10T09:46:48;97712.34;;;22.77;47.08
50057;BME280;36875;49.468;11.200;2023-06-10T09:49:15;97726.41;;;22.76;47.18
50057;BME280;36875;49.468;11.200;2023-06-10T09:51:49;97717.03;;;22.77;47.21
50057;BME280;36875;49.468;11.200;2023-06-10T09:54:17;97721.53;;;22.81;47.27
50057;BME280;36875;49.468;11.200;2023-06-10T09:56:46;97705.72;;;22.78;47.39
50057;BME280;36875;49.468;11.200;2023-06-10T09:59:12;97712.28;;;22.86;47.03
50057;BME280;36875;49.468;11.200;2023-06-10T10:01:37;97712.59;;;22.84;47.02
50057;BME280;36875;49.468;11.200;2023-06-10T10:04:03;97704.84;;;22.86;46.86
50057;BME280;36875;49.468;11.200;2023-06-10T10:06:30;97700.97;;;22.87;46.96
50057;BME280;36875;49.468;11.200;2023-06-10T10:08:55;97700.19;;;22.87;46.80
50057;BME280;36875;49.468;11.200;2023-06-10T10:11:23;97700.66;;;22.89;47.03
50057;BME280;36875;49.468;11.200;2023-06-10T10:13:51;97705.81;;;22.90;46.94
50057;BME280;36875;49.468;11.200;2023-06-10T10:16:19;97701.84;;;22.79;47.38
50057;BME280;36875;49.468;11.200;2023-06-10T10:18:49;97697.97;;;22.80;47.29
50057;BME280;36875;49.468;11.200;2023-06-10T10:21:21;97695.69;;;22.82;47.18
50057;BME280;36875;49.468;11.200;2023-06-10T10:23:53;97705.06;;;22.81;47.20
50057;BME280;36875;49.468;11.200;2023-06-10T10:26:19;97697.97;;;22.80;47.32
50057;BME280;36875;49.468;11.200;2023-06-10T10:28:53;97693.88;;;22.86;47.11
50057;BME280;36875;49.468;11.200;2023-06-10T10:31:21;97698.69;;;22.89;47.04
50057;BME280;36875;49.468;11.200;2023-06-10T10:33:54;97690.00;;;22.87;46.93
50057;BME280;36875;49.468;11.200;2023-06-10T10:36:21;97699.13;;;22.79;47.02
50057;BME280;36875;49.468;11.200;2023-06-10T10:38:48;97702.66;;;22.80;47.22
50057;BME280;36875;49.468;11.200;2023-06-10T10:41:15;97701.91;;;22.70;47.54
50057;BME280;36875;49.468;11.200;2023-06-10T10:43:43;97708.19;;;22.71;47.33
50057;BME280;36875;49.468;11.200;2023-06-10T10:46:13;97702.06;;;22.74;47.54
50057;BME280;36875;49.468;11.200;2023-06-10T10:48:40;97708.47;;;22.78;47.19
50057;BME280;36875;49.468;11.200;2023-06-10T10:51:09;97703.31;;;22.77;46.99
50057;BME280;36875;49.468;11.200;2023-06-10T10:53:37;97715.56;;;22.79;47.02
50057;BME280;36875;49.468;11.200;2023-06-10T10:56:05;97707.88;;;22.73;47.19
50057;BME280;36875;49.468;11.200;2023-06-10T10:58:32;97705.59;;;22.75;47.30
50057;BME280;36875;49.468;11.200;2023-06-10T11:00:58;97712.09;;;22.70;47.32
50057;BME280;36875;49.468;11.200;2023-06-10T11:03:28;97708.84;;;22.68;47.46
50057;BME280;36875;49.468;11.200;2023-06-10T11:05:54;97709.34;;;22.70;47.21
50057;BME280;36875;49.468;11.200;2023-06-10T11:08:46;97702.53;;;22.76;47.16
50057;BME280;36875;49.468;11.200;2023-06-10T11:11:19;97706.38;;;22.75;47.30
50057;BME280;36875;49.468;11.200;2023-06-10T11:13:58;97705.25;;;22.76;47.32
50057;BME280;36875;49.468;11.200;2023-06-10T11:16:27;97705.47;;;22.71;46.87
50057;BME280;36875;49.468;11.200;2023-06-10T11:18:55;97701.72;;;22.76;47.16
50057;BME280;36875;49.468;11.200;2023-06-10T11:21:23;97707.81;;;22.81;47.20
50057;BME280;36875;49.468;11.200;2023-06-10T11:23:50;97704.38;;;22.84;47.21
50057;BME280;36875;49.468;11.200;2023-06-10T11:26:20;97696.59;;;22.86;47.15
50057;BME280;36875;49.468;11.200;2023-06-10T11:29:07;97702.09;;;22.86;47.03
50057;BME280;36875;49.468;11.200;2023-06-10T11:31:41;97698.63;;;22.77;47.22
50057;BME280;36875;49.468;11.200;2023-06-10T11:34:08;97693.63;;;22.79;47.08
50057;BME280;36875;49.468;11.200;2023-06-10T11:36:37;97686.06;;;22.76;47.13
50057;BME280;36875;49.468;11.200;2023-06-10T11:39:06;97689.59;;;22.77;47.20
50057;BME280;36875;49.468;11.200;2023-06-10T11:41:32;97685.94;;;22.73;47.10
50057;BME280;36875;49.468;11.200;2023-06-10T11:44:01;97691.09;;;22.74;47.12
50057;BME280;36875;49.468;11.200;2023-06-10T11:46:27;97683.50;;;22.71;47.32
50057;BME280;36875;49.468;11.200;2023-06-10T11:48:53;97689.31;;;22.69;47.35
50057;BME280;36875;49.468;11.200;2023-06-10T11:51:21;97694.81;;;22.69;47.56
50057;BME280;36875;49.468;11.200;2023-06-10T11:53:47;97678.91;;;22.63;47.44
50057;BME280;36875;49.468;11.200;2023-06-10T11:56:14;97685.66;;;22.65;47.13
50057;BME280;36875;49.468;11.200;2023-06-10T11:58:45;97688.22;;;22.70;47.38
50057;BME280;36875;49.468;11.200;2023-06-10T12:01:10;97688.81;;;22.76;47.17
50057;BME280;36875;49.468;11.200;2023-06-10T12:03:36;97680.25;;;22.78;47.10
50057;BME280;36875;49.468;11.200;2023-06-10T12:06:04;97681.50;;;22.80;47.09
50057;BME280;36875;49.468;11.200;2023-06-10T12:08:32;97683.13;;;22.81;47.15
50057;BME280;36875;49.468;11.200;2023-06-10T12:10:58;97672.59;;;22.83;47.12
50057;BME280;36875;49.468;11.200;2023-06-10T12:13:26;97679.69;;;22.84;47.12
50057;BME280;36875;49.468;11.200;2023-06-10T12:15:52;97661.97;;;22.82;46.91
50057;BME280;36875;49.468;11.200;2023-06-10T12:18:19;97675.69;;;22.82;47.00
50057;BME280;36875;49.468;11.200;2023-06-10T12:20:45;97671.13;;;22.86;46.86
50057;BME280;36875;49.468;11.200;2023-06-10T12:23:11;97662.09;;;22.85;47.06
50057;BME280;36875;49.468;11.200;2023-06-10T12:25:38;97662.09;;;22.85;47.22
50057;BME280;36875;49.468;11.200;2023-06-10T12:28:05;97657.41;;;22.86;47.03
50057;BME280;36875;49.468;11.200;2023-06-10T12:30:32;97662.91;;;22.86;46.98
50057;BME280;36875;49.468;11.200;2023-06-10T12:32:58;97659.69;;;22.84;46.83
50057;BME280;36875;49.468;11.200;2023-06-10T12:35:25;97658.44;;;22.81;47.06
50057;BME280;36875;49.468;11.200;2023-06-10T12:37:55;97657.47;;;22.77;47.14
50057;BME280;36875;49.468;11.200;2023-06-10T12:40:25;97663.66;;;22.74;47.25
50057;BME280;36875;49.468;11.200;2023-06-10T12:42:53;97656.53;;;22.73;47.33
50057;BME280;36875;49.468;11.200;2023-06-10T12:45:26;97656.53;;;22.73;47.28
50057;BME280;36875;49.468;11.200;2023-06-10T12:48:04;97654.13;;;22.71;47.14